createdAt,value
2019-03-10T17:27:31.402Z,1001.37
2019-03-10T17:28:31.393Z,1001.33
2019-03-10T17:29:31.379Z,1001.38
2019-03-10T17:30:31.361Z,1001.46
2019-03-10T17:31:31.358Z,1001.46
2019-03-10T17:32:31.314Z,1001.48
2019-03-10T17:33:31.290Z,1001.59
2019-03-10T17:34:31.246Z,1001.68
2019-03-10T17:35:31.222Z,1001.90
2019-03-10T17:36:31.186Z,1001.99
2019-03-10T17:37:31.147Z,1001.97
2019-03-10T17:38:31.126Z,1002.22
2019-03-10T17:39:31.075Z,1002.30
2019-03-10T17:40:31.051Z,1002.39
2019-03-10T17:41:31.000Z,1002.25
2019-03-10T17:42:30.962Z,1002.17
2019-03-10T17:43:30.919Z,1002.24
2019-03-10T17:44:40.695Z,1002.08
2019-03-10T17:45:31.914Z,1002.06
2019-03-10T17:46:30.894Z,1002.04
2019-03-10T17:47:30.839Z,1002.19
2019-03-10T17:48:30.797Z,1002.22
2019-03-10T17:49:30.765Z,1002.08
2019-03-10T17:50:30.703Z,1002.18
2019-03-10T17:51:30.661Z,1002.33
2019-03-10T17:52:30.615Z,1002.30
2019-03-10T17:53:30.571Z,1002.25
2019-03-10T17:54:30.519Z,1002.33
2019-03-10T17:55:30.475Z,1002.36
2019-03-10T17:56:30.428Z,1002.41
2019-03-10T17:57:30.390Z,1002.41
2019-03-10T17:58:30.352Z,1002.45
2019-03-10T17:59:30.297Z,1002.32
2019-03-10T18:00:30.257Z,1002.39
2019-03-10T18:01:30.211Z,1002.46
2019-03-10T18:02:30.175Z,1002.49
2019-03-10T18:03:30.134Z,1002.55
2019-03-10T18:04:30.094Z,1002.63
2019-03-10T18:05:30.059Z,1002.63
2019-03-10T18:06:30.018Z,1002.70
2019-03-10T18:07:29.979Z,1002.59
2019-03-10T18:08:29.942Z,1002.58
2019-03-10T18:09:29.900Z,1002.55
2019-03-10T18:10:29.866Z,1002.52
2019-03-10T18:11:29.823Z,1002.58
2019-03-10T18:12:29.788Z,1002.66
2019-03-10T18:13:29.741Z,1002.53
2019-03-10T18:14:29.693Z,1002.71
2019-03-10T18:15:29.650Z,1002.47
2019-03-10T18:16:29.607Z,1002.74
2019-03-10T18:17:29.565Z,1002.60
2019-03-10T18:18:29.542Z,1002.94
2019-03-10T18:19:29.487Z,1002.67
2019-03-10T18:20:29.441Z,1002.74
2019-03-10T18:21:29.471Z,1002.87
2019-03-10T18:22:29.436Z,1002.93
2019-03-10T18:23:29.403Z,1002.96
2019-03-10T18:24:29.348Z,1003.04
2019-03-10T18:25:29.310Z,1002.93
2019-03-10T18:26:29.268Z,1002.91
2019-03-10T18:27:29.225Z,1003.06
2019-03-10T18:28:29.198Z,1003.06
2019-03-10T18:29:29.149Z,1003.21
2019-03-10T18:30:29.091Z,1003.11
2019-03-10T18:31:29.053Z,1003.18
2019-03-10T18:32:28.994Z,1003.06
2019-03-10T18:33:28.951Z,1003.14
2019-03-10T18:34:28.912Z,1003.22
2019-03-10T18:35:28.867Z,1003.18
2019-03-10T18:36:28.813Z,1003.19
2019-03-10T18:37:31.767Z,1003.24
2019-03-10T18:38:29.740Z,1003.29
2019-03-10T18:39:28.687Z,1003.21
2019-03-10T18:40:28.633Z,1003.42
2019-03-10T18:41:28.599Z,1003.36
2019-03-10T18:42:28.544Z,1003.53
2019-03-10T18:43:28.524Z,1003.53
2019-03-10T18:44:28.462Z,1003.42
2019-03-10T18:45:28.423Z,1003.46
2019-03-10T18:46:28.373Z,1003.53
2019-03-10T18:47:28.341Z,1003.69
2019-03-10T18:48:28.293Z,1003.68
2019-03-10T18:49:28.282Z,1003.47
2019-03-10T18:50:28.220Z,1003.48
2019-03-10T18:51:28.175Z,1003.47
2019-03-10T18:52:28.141Z,1003.55
2019-03-10T18:53:28.097Z,1003.57
2019-03-10T18:54:28.058Z,1003.67
2019-03-10T18:55:28.001Z,1003.53
2019-03-10T18:56:27.952Z,1003.66
2019-03-10T18:57:27.908Z,1003.59
2019-03-10T18:58:27.876Z,1003.52
2019-03-10T18:59:27.851Z,1003.47
2019-03-10T19:00:27.775Z,1003.54
2019-03-10T19:01:27.724Z,1003.56
2019-03-10T19:02:27.682Z,1003.70
2019-03-10T19:03:27.639Z,1003.69
2019-03-10T19:04:27.605Z,1003.70
2019-03-10T19:05:27.553Z,1003.69
2019-03-10T19:06:27.512Z,1003.70
2019-03-10T19:07:27.472Z,1003.73
2019-03-10T19:08:27.419Z,1003.79
2019-03-10T19:09:27.396Z,1003.81
2019-03-10T19:10:27.330Z,1003.77
2019-03-10T19:11:27.290Z,1003.84
2019-03-10T19:12:27.248Z,1003.87
2019-03-10T19:13:27.201Z,1003.91
2019-03-10T19:14:27.160Z,1003.87
2019-03-10T19:15:27.103Z,1003.87
2019-03-10T19:16:27.060Z,1003.86
2019-03-10T19:17:27.009Z,1004.01
2019-03-10T19:18:26.965Z,1003.99
2019-03-10T19:19:26.943Z,1004.04
2019-03-10T19:20:26.888Z,1003.98
2019-03-10T19:21:26.842Z,1004.06
2019-03-10T19:22:26.799Z,1004.11
2019-03-10T19:23:26.768Z,1004.25
2019-03-10T19:24:26.716Z,1004.28
2019-03-10T19:25:26.705Z,1004.26
2019-03-10T19:26:26.630Z,1004.31
2019-03-10T19:27:30.073Z,1004.43
2019-03-10T19:28:26.542Z,1004.68
2019-03-10T19:29:26.510Z,1004.70
2019-03-10T19:30:26.478Z,1004.83
2019-03-10T19:31:26.423Z,1004.89
2019-03-10T19:32:26.376Z,1004.97
2019-03-10T19:33:26.336Z,1005.15
2019-03-10T19:34:26.292Z,1005.13
2019-03-10T19:35:26.260Z,1005.19
2019-03-10T19:36:26.209Z,1005.21
2019-03-10T19:37:26.171Z,1005.15
2019-03-10T19:38:26.141Z,1005.21
2019-03-10T19:39:26.097Z,1005.21
2019-03-10T19:40:26.069Z,1005.24
2019-03-10T19:41:26.019Z,1005.45
2019-03-10T19:42:25.997Z,1005.36
2019-03-10T19:43:25.932Z,1005.23
2019-03-10T19:44:25.891Z,1005.34
2019-03-10T19:45:25.857Z,1005.40
2019-03-10T19:46:25.803Z,1005.26
2019-03-10T19:47:25.768Z,1005.32
2019-03-10T19:48:25.715Z,1005.33
2019-03-10T19:49:25.669Z,1005.37
2019-03-10T19:50:27.375Z,1005.41
2019-03-10T19:51:25.589Z,1005.40
2019-03-10T19:52:25.627Z,1005.41
2019-03-10T19:53:25.569Z,1005.39
2019-03-10T19:54:25.539Z,1005.49
2019-03-10T19:55:25.495Z,1005.52
2019-03-10T19:56:25.442Z,1005.54
2019-03-10T19:57:25.415Z,1005.62
2019-03-10T19:58:25.347Z,1005.67
2019-03-10T19:59:25.302Z,1005.54
2019-03-10T20:00:25.276Z,1005.47
2019-03-10T20:01:25.219Z,1005.57
2019-03-10T20:02:25.184Z,1005.71
2019-03-10T20:03:25.135Z,1005.72
2019-03-10T20:04:25.118Z,1005.56
2019-03-10T20:05:25.068Z,1005.55
2019-03-10T20:06:25.030Z,1005.60
2019-03-10T20:07:24.974Z,1005.59
2019-03-10T20:08:24.945Z,1005.70
2019-03-10T20:09:24.882Z,1005.66
2019-03-10T20:10:24.859Z,1005.73
2019-03-10T20:11:24.792Z,1005.74
2019-03-10T20:12:24.762Z,1005.72
2019-03-10T20:13:24.712Z,1005.68
2019-03-10T20:14:24.670Z,1005.76
2019-03-10T20:15:24.644Z,1005.84
2019-03-10T20:16:24.587Z,1005.75
2019-03-10T20:17:24.531Z,1005.83
2019-03-10T20:18:24.493Z,1005.70
2019-03-10T20:19:24.451Z,1005.72
2019-03-10T20:20:24.443Z,1005.82
2019-03-10T20:21:24.375Z,1005.90
2019-03-10T20:22:24.325Z,1005.87
2019-03-10T20:23:24.278Z,1005.88
2019-03-10T20:24:24.267Z,1005.93
2019-03-10T20:25:24.199Z,1005.94
2019-03-10T20:26:24.145Z,1005.95
2019-03-10T20:27:24.098Z,1006.02
2019-03-10T20:28:24.093Z,1005.93
2019-03-10T20:29:24.010Z,1005.98
2019-03-10T20:30:23.974Z,1005.99
2019-03-10T20:31:23.917Z,1005.93
2019-03-10T20:32:23.882Z,1005.94
2019-03-10T20:33:23.876Z,1005.90
2019-03-10T20:34:23.782Z,1005.88
2019-03-10T20:35:24.015Z,1005.94
2019-03-10T20:36:23.671Z,1005.97
2019-03-10T20:37:23.625Z,1005.93
2019-03-10T20:38:23.579Z,1005.96
2019-03-10T20:39:23.536Z,1005.94
2019-03-10T20:40:23.489Z,1005.90
2019-03-10T20:41:23.433Z,1005.97
2019-03-10T20:42:23.381Z,1005.95
2019-03-10T20:43:23.420Z,1005.95
2019-03-10T20:44:23.294Z,1006.01
2019-03-10T20:45:24.483Z,1006.06
2019-03-10T20:46:23.223Z,1006.00
2019-03-10T20:47:23.164Z,1006.10
2019-03-10T20:48:23.109Z,1006.04
2019-03-10T20:49:23.085Z,1006.02
2019-03-10T20:50:23.032Z,1006.07
2019-03-10T20:51:22.982Z,1006.06
2019-03-10T20:52:22.926Z,1006.13
2019-03-10T20:53:22.883Z,1006.12
2019-03-10T20:54:22.840Z,1006.20
2019-03-10T20:55:22.801Z,1006.22
2019-03-10T20:56:22.752Z,1006.24
2019-03-10T20:57:22.707Z,1006.26
2019-03-10T20:58:22.691Z,1006.36
2019-03-10T20:59:22.629Z,1006.37
2019-03-10T21:00:22.591Z,1006.39
2019-03-10T21:01:22.571Z,1006.54
2019-03-10T21:02:22.505Z,1006.64
2019-03-10T21:03:22.466Z,1006.69
2019-03-10T21:04:22.981Z,1006.65
2019-03-10T21:05:22.386Z,1006.64
2019-03-10T21:06:22.360Z,1006.64
2019-03-10T21:07:22.299Z,1006.62
2019-03-10T21:08:22.270Z,1006.64
2019-03-10T21:09:22.217Z,1006.58
2019-03-10T21:10:22.172Z,1006.58
2019-03-10T21:11:22.153Z,1006.74
2019-03-10T21:12:22.105Z,1006.83
2019-03-10T21:13:22.056Z,1006.94
2019-03-10T21:14:22.020Z,1006.87
2019-03-10T21:15:21.967Z,1006.78
2019-03-10T21:16:21.936Z,1006.67
2019-03-10T21:17:21.881Z,1006.75
2019-03-10T21:18:21.839Z,1006.69
2019-03-10T21:19:21.791Z,1006.69
2019-03-10T21:20:21.757Z,1006.71
2019-03-10T21:21:21.719Z,1006.72
2019-03-10T21:22:21.675Z,1006.81
2019-03-10T21:23:21.627Z,1006.86
2019-03-10T21:24:21.573Z,1006.82
2019-03-10T21:25:21.529Z,1006.81
2019-03-10T21:26:21.503Z,1006.82
2019-03-10T21:27:21.443Z,1006.87
2019-03-10T21:28:21.416Z,1006.86
2019-03-10T21:29:21.374Z,1006.83
2019-03-10T21:30:21.329Z,1006.93
2019-03-10T21:31:21.323Z,1006.92
2019-03-10T21:32:21.253Z,1006.87
2019-03-10T21:33:21.218Z,1006.96
2019-03-10T21:34:21.186Z,1006.98
2019-03-10T21:35:21.147Z,1007.00
2019-03-10T21:36:21.125Z,1006.97
2019-03-10T21:37:21.076Z,1007.03
2019-03-10T21:38:21.044Z,1006.95
2019-03-10T21:39:21.012Z,1007.03
2019-03-10T21:40:20.971Z,1007.03
2019-03-10T21:41:23.491Z,1006.97
2019-03-10T21:42:20.910Z,1007.08
2019-03-10T21:43:20.871Z,1007.08
2019-03-10T21:44:26.692Z,1006.99
2019-03-10T21:45:21.803Z,1007.06
2019-03-10T21:46:20.781Z,1007.04
2019-03-10T21:47:20.733Z,1007.04
2019-03-10T21:48:20.698Z,1007.11
2019-03-10T21:49:20.657Z,1007.16
2019-03-10T21:50:20.630Z,1007.05
2019-03-10T21:51:20.601Z,1007.13
2019-03-10T21:52:20.552Z,1007.13
2019-03-10T21:53:20.588Z,1007.14
2019-03-10T21:54:20.563Z,1007.16
2019-03-10T21:55:20.530Z,1007.13
2019-03-10T21:56:20.500Z,1007.07
2019-03-10T21:57:20.488Z,1007.21
2019-03-10T21:58:20.449Z,1007.10
2019-03-10T21:59:20.399Z,1007.21
2019-03-10T22:00:20.381Z,1007.30
2019-03-10T22:01:20.329Z,1007.24
2019-03-10T22:02:20.285Z,1007.22
2019-03-10T22:03:20.243Z,1007.24
2019-03-10T22:04:20.200Z,1007.27
2019-03-10T22:05:20.188Z,1007.26
2019-03-10T22:06:20.135Z,1007.29
2019-03-10T22:07:20.080Z,1007.33
2019-03-10T22:08:20.039Z,1007.33
2019-03-10T22:09:20.001Z,1007.32
2019-03-10T22:10:26.907Z,1007.30
2019-03-10T22:11:20.944Z,1007.31
2019-03-10T22:12:19.904Z,1007.32
2019-03-10T22:13:19.851Z,1007.28
2019-03-10T22:14:19.800Z,1007.38
2019-03-10T22:15:19.761Z,1007.39
2019-03-10T22:16:19.717Z,1007.29
2019-03-10T22:17:19.677Z,1007.27
2019-03-10T22:18:19.649Z,1007.30
2019-03-10T22:19:22.908Z,1007.44
2019-03-10T22:20:19.560Z,1007.35
2019-03-10T22:21:19.528Z,1007.43
2019-03-10T22:22:19.527Z,1007.45
2019-03-10T22:23:19.440Z,1007.43
2019-03-10T22:24:19.403Z,1007.45
2019-03-10T22:25:19.371Z,1007.49
2019-03-10T22:26:19.329Z,1007.57
2019-03-10T22:27:19.317Z,1007.46
2019-03-10T22:28:19.262Z,1007.61
2019-03-10T22:29:19.222Z,1007.63
2019-03-10T22:30:19.219Z,1007.58
2019-03-10T22:31:19.165Z,1007.63
2019-03-10T22:32:19.154Z,1007.67
2019-03-10T22:33:19.076Z,1007.75
2019-03-10T22:34:19.049Z,1007.73
2019-03-10T22:35:19.004Z,1007.72
2019-03-10T22:36:18.966Z,1007.78
2019-03-10T22:37:18.952Z,1007.80
2019-03-10T22:38:18.899Z,1007.77
2019-03-10T22:39:18.866Z,1007.82
2019-03-10T22:40:18.866Z,1007.90
2019-03-10T22:41:18.792Z,1007.90
2019-03-10T22:42:18.791Z,1007.99
2019-03-10T22:43:18.749Z,1007.93
2019-03-10T22:44:18.705Z,1007.98
2019-03-10T22:45:18.702Z,1007.97
2019-03-10T22:46:18.658Z,1007.99
2019-03-10T22:47:18.629Z,1008.00
2019-03-10T22:48:18.616Z,1008.03
2019-03-10T22:49:18.553Z,1008.11
2019-03-10T22:50:18.527Z,1008.07
2019-03-10T22:51:18.492Z,1008.07
2019-03-10T22:52:18.486Z,1008.05
2019-03-10T22:53:18.423Z,1008.12
2019-03-10T22:54:18.427Z,1008.14
2019-03-10T22:55:18.363Z,1008.19
2019-03-10T22:56:18.323Z,1008.15
2019-03-10T22:57:18.298Z,1008.13
2019-03-10T22:58:18.286Z,1008.12
2019-03-10T22:59:18.224Z,1008.12
2019-03-10T23:00:18.201Z,1008.17
2019-03-10T23:01:18.162Z,1008.17
2019-03-10T23:02:18.135Z,1008.12
2019-03-10T23:03:18.102Z,1008.16
2019-03-10T23:04:18.061Z,1008.18
2019-03-10T23:05:18.032Z,1008.23
2019-03-10T23:06:17.994Z,1008.22
2019-03-10T23:07:17.957Z,1008.21
2019-03-10T23:08:17.927Z,1008.24
2019-03-10T23:09:17.908Z,1008.23
2019-03-10T23:10:17.865Z,1008.21
2019-03-10T23:11:17.831Z,1008.23
2019-03-10T23:12:17.810Z,1008.24
2019-03-10T23:13:17.782Z,1008.26
2019-03-10T23:14:17.762Z,1008.29
2019-03-10T23:15:17.703Z,1008.30
2019-03-10T23:16:17.677Z,1008.31
2019-03-10T23:17:17.640Z,1008.29
2019-03-10T23:18:17.625Z,1008.32
2019-03-10T23:19:17.591Z,1008.29
2019-03-10T23:20:17.525Z,1008.42
2019-03-10T23:21:17.502Z,1008.33
2019-03-10T23:22:17.466Z,1008.42
2019-03-10T23:23:17.440Z,1008.41
2019-03-10T23:24:17.419Z,1008.38
2019-03-10T23:25:17.376Z,1008.36
2019-03-10T23:26:17.334Z,1008.43
2019-03-10T23:27:17.301Z,1008.38
2019-03-10T23:28:17.284Z,1008.43
2019-03-10T23:29:17.233Z,1008.37
2019-03-10T23:30:17.190Z,1008.37
2019-03-10T23:31:17.175Z,1008.42
2019-03-10T23:32:17.125Z,1008.41
2019-03-10T23:33:17.100Z,1008.37
2019-03-10T23:34:17.065Z,1008.42
2019-03-10T23:35:17.025Z,1008.40
2019-03-10T23:36:17.006Z,1008.46
2019-03-10T23:37:17.001Z,1008.44
2019-03-10T23:38:16.944Z,1008.33
2019-03-10T23:39:16.906Z,1008.33
2019-03-10T23:40:16.902Z,1008.32
2019-03-10T23:41:16.844Z,1008.36
2019-03-10T23:42:16.825Z,1008.35
2019-03-10T23:43:16.765Z,1008.36
2019-03-10T23:44:16.733Z,1008.33
2019-03-10T23:45:16.693Z,1008.28
2019-03-10T23:46:16.670Z,1008.28
2019-03-10T23:47:16.637Z,1008.36
2019-03-10T23:48:16.623Z,1008.27
2019-03-10T23:49:16.569Z,1008.27
2019-03-10T23:50:16.528Z,1008.33
2019-03-10T23:51:16.498Z,1008.27
2019-03-10T23:52:16.459Z,1008.21
2019-03-10T23:53:16.486Z,1008.30
2019-03-10T23:54:16.472Z,1008.23
2019-03-10T23:55:16.435Z,1008.20
2019-03-10T23:56:16.383Z,1008.21
2019-03-10T23:57:16.350Z,1008.31
2019-03-10T23:58:16.315Z,1008.19
2019-03-10T23:59:16.304Z,1008.18
